sensor_id;sensor_type;location;lat;lon;timestamp;P1;durP1;ratioP1;P2;durP2;ratioP2
9526;SDS011;4802;51.494;6.770;2023-05-10T00:01:43;7.67;;;4.67;;
9526;SDS011;4802;51.494;6.770;2023-05-10T00:04:12;5.13;;;3.73;;
9526;SDS011;4802;51.494;6.770;2023-05-10T00:06:59;8.87;;;4.10;;
9526;SDS011;4802;51.494;6.770;2023-05-10T00:09:36;5.30;;;3.53;;
9526;SDS011;4802;51.494;6.770;2023-05-10T00:12:05;5.47;;;3.93;;
9526;SDS011;4802;51.494;6.770;2023-05-10T00:14:37;4.90;;;4.40;;
9526;SDS011;4802;51.494;6.770;2023-05-10T00:17:12;4.03;;;3.50;;
9526;SDS011;4802;51.494;6.770;2023-05-10T00:19:45;8.60;;;4.30;;
9526;SDS011;4802;51.494;6.770;2023-05-10T00:22:17;7.60;;;5.67;;
9526;SDS011;4802;51.494;6.770;2023-05-10T00:24:47;9.00;;;5.30;;
9526;SDS011;4802;51.494;6.770;2023-05-10T00:27:26;10.67;;;5.83;;
9526;SDS011;4802;51.494;6.770;2023-05-10T00:30:01;7.53;;;6.90;;
9526;SDS011;4802;51.494;6.770;2023-05-10T00:32:40;8.07;;;5.30;;
9526;SDS011;4802;51.494;6.770;2023-05-10T00:35:12;9.27;;;6.33;;
9526;SDS011;4802;51.494;6.770;2023-05-10T00:37:43;13.30;;;6.70;;
9526;SDS011;4802;51.494;6.770;2023-05-10T00:40:13;4.63;;;3.70;;
9526;SDS011;4802;51.494;6.770;2023-05-10T00:42:43;20.63;;;6.57;;
9526;SDS011;4802;51.494;6.770;2023-05-10T00:45:13;7.93;;;5.27;;
9526;SDS011;4802;51.494;6.770;2023-05-10T00:47:45;9.30;;;6.40;;
9526;SDS011;4802;51.494;6.770;2023-05-10T00:50:15;10.63;;;5.20;;
9526;SDS011;4802;51.494;6.770;2023-05-10T00:52:46;14.80;;;5.97;;
9526;SDS011;4802;51.494;6.770;2023-05-10T00:55:16;12.63;;;6.57;;
9526;SDS011;4802;51.494;6.770;2023-05-10T00:57:45;14.07;;;7.47;;
9526;SDS011;4802;51.494;6.770;2023-05-10T01:00:14;11.97;;;6.80;;
9526;SDS011;4802;51.494;6.770;2023-05-10T01:02:47;6.93;;;4.03;;
9526;SDS011;4802;51.494;6.770;2023-05-10T01:05:17;10.27;;;6.20;;
9526;SDS011;4802;51.494;6.770;2023-05-10T01:07:48;9.70;;;5.07;;
9526;SDS011;4802;51.494;6.770;2023-05-10T01:10:17;13.03;;;6.57;;
9526;SDS011;4802;51.494;6.770;2023-05-10T01:12:50;21.10;;;7.90;;
9526;SDS011;4802;51.494;6.770;2023-05-10T01:15:20;11.87;;;8.13;;
9526;SDS011;4802;51.494;6.770;2023-05-10T01:17:52;4.93;;;3.93;;
9526;SDS011;4802;51.494;6.770;2023-05-10T01:20:22;7.37;;;5.50;;
9526;SDS011;4802;51.494;6.770;2023-05-10T01:23:06;4.50;;;4.10;;
9526;SDS011;4802;51.494;6.770;2023-05-10T01:25:44;8.17;;;5.20;;
9526;SDS011;4802;51.494;6.770;2023-05-10T01:28:29;9.73;;;6.87;;
9526;SDS011;4802;51.494;6.770;2023-05-10T01:31:04;8.23;;;4.77;;
9526;SDS011;4802;51.494;6.770;2023-05-10T01:33:41;12.40;;;6.20;;
9526;SDS011;4802;51.494;6.770;2023-05-10T01:36:19;7.03;;;5.63;;
9526;SDS011;4802;51.494;6.770;2023-05-10T01:38:53;13.33;;;4.97;;
9526;SDS011;4802;51.494;6.770;2023-05-10T01:41:28;10.43;;;5.00;;
9526;SDS011;4802;51.494;6.770;2023-05-10T01:44:01;6.83;;;4.50;;
9526;SDS011;4802;51.494;6.770;2023-05-10T01:46:33;10.03;;;4.43;;
9526;SDS011;4802;51.494;6.770;2023-05-10T01:49:08;9.77;;;5.03;;
9526;SDS011;4802;51.494;6.770;2023-05-10T01:51:38;9.07;;;6.50;;
9526;SDS011;4802;51.494;6.770;2023-05-10T01:54:08;16.37;;;5.33;;
9526;SDS011;4802;51.494;6.770;2023-05-10T01:56:43;5.83;;;4.80;;
9526;SDS011;4802;51.494;6.770;2023-05-10T01:59:18;5.80;;;4.20;;
9526;SDS011;4802;51.494;6.770;2023-05-10T02:01:48;7.50;;;4.70;;
9526;SDS011;4802;51.494;6.770;2023-05-10T02:04:19;12.17;;;5.27;;
9526;SDS011;4802;51.494;6.770;2023-05-10T02:06:48;7.53;;;3.70;;
9526;SDS011;4802;51.494;6.770;2023-05-10T02:09:18;4.90;;;3.40;;
9526;SDS011;4802;51.494;6.770;2023-05-10T02:11:47;3.67;;;3.33;;
9526;SDS011;4802;51.494;6.770;2023-05-10T02:14:19;5.23;;;4.20;;
9526;SDS011;4802;51.494;6.770;2023-05-10T02:16:49;5.13;;;3.73;;
9526;SDS011;4802;51.494;6.770;2023-05-10T02:19:21;9.10;;;3.33;;
9526;SDS011;4802;51.494;6.770;2023-05-10T02:21:52;10.03;;;4.70;;
9526;SDS011;4802;51.494;6.770;2023-05-10T02:24:21;7.57;;;6.17;;
9526;SDS011;4802;51.494;6.770;2023-05-10T02:26:53;11.37;;;5.83;;
9526;SDS011;4802;51.494;6.770;2023-05-10T02:29:23;6.53;;;5.30;;
9526;SDS011;4802;51.494;6.770;2023-05-10T02:31:54;11.60;;;5.87;;
9526;SDS011;4802;51.494;6.770;2023-05-10T02:34:26;6.43;;;4.93;;
9526;SDS011;4802;51.494;6.770;2023-05-10T02:36:57;6.73;;;5.10;;
9526;SDS011;4802;51.494;6.770;2023-05-10T02:39:26;16.00;;;6.40;;
9526;SDS011;4802;51.494;6.770;2023-05-10T02:41:56;9.50;;;6.30;;
9526;SDS011;4802;51.494;6.770;2023-05-10T02:44:26;9.53;;;5.50;;
9526;SDS011;4802;51.494;6.770;2023-05-10T02:46:57;5.83;;;4.53;;
9526;SDS011;4802;51.494;6.770;2023-05-10T02:49:28;11.33;;;6.43;;
9526;SDS011;4802;51.494;6.770;2023-05-10T02:52:00;9.20;;;6.43;;
9526;SDS011;4802;51.494;6.770;2023-05-10T02:54:30;7.73;;;5.20;;
9526;SDS011;4802;51.494;6.770;2023-05-10T02:57:15;7.80;;;6.30;;
9526;SDS011;4802;51.494;6.770;2023-05-10T02:59:46;11.80;;;7.13;;
9526;SDS011;4802;51.494;6.770;2023-05-10T03:02:28;5.40;;;4.90;;
9526;SDS011;4802;51.494;6.770;2023-05-10T03:05:03;8.97;;;5.80;;
9526;SDS011;4802;51.494;6.770;2023-05-10T03:07:34;12.13;;;6.80;;
9526;SDS011;4802;51.494;6.770;2023-05-10T03:10:04;6.87;;;5.20;;
9526;SDS011;4802;51.494;6.770;2023-05-10T03:12:41;7.43;;;5.70;;
9526;SDS011;4802;51.494;6.770;2023-05-10T03:15:13;8.43;;;5.10;;
9526;SDS011;4802;51.494;6.770;2023-05-10T03:17:47;12.47;;;7.70;;
9526;SDS011;4802;51.494;6.770;2023-05-10T03:20:29;9.77;;;7.00;;
9526;SDS011;4802;51.494;6.770;2023-05-10T03:23:01;8.80;;;4.80;;
9526;SDS011;4802;51.494;6.770;2023-05-10T03:25:36;10.43;;;5.53;;
9526;SDS011;4802;51.494;6.770;2023-05-10T03:28:06;9.97;;;5.90;;
9526;SDS011;4802;51.494;6.770;2023-05-10T03:30:36;14.30;;;5.20;;
9526;SDS011;4802;51.494;6.770;2023-05-10T03:33:07;6.77;;;4.97;;
9526;SDS011;4802;51.494;6.770;2023-05-10T03:35:37;12.67;;;6.17;;
9526;SDS011;4802;51.494;6.770;2023-05-10T03:38:15;14.07;;;6.70;;
9526;SDS011;4802;51.494;6.770;2023-05-10T03:40:46;12.50;;;6.57;;
9526;SDS011;4802;51.494;6.770;2023-05-10T03:43:17;10.30;;;6.60;;
9526;SDS011;4802;51.494;6.770;2023-05-10T03:45:46;13.33;;;7.70;;
9526;SDS011;4802;51.494;6.770;2023-05-10T03:48:16;9.73;;;6.37;;
9526;SDS011;4802;51.494;6.770;2023-05-10T03:50:47;10.77;;;7.43;;
9526;SDS011;4802;51.494;6.770;2023-05-10T03:53:16;14.47;;;7.57;;
9526;SDS011;4802;51.494;6.770;2023-05-10T03:55:47;11.37;;;6.40;;
9526;SDS011;4802;51.494;6.770;2023-05-10T03:58:17;8.17;;;6.00;;
9526;SDS011;4802;51.494;6.770;2023-05-10T04:00:46;13.63;;;6.53;;
9526;SDS011;4802;51.494;6.770;2023-05-10T04:03:16;10.90;;;7.33;;
9526;SDS011;4802;51.494;6.770;2023-05-10T04:05:48;16.00;;;7.20;;
9526;SDS011;4802;51.494;6.770;2023-05-10T04:08:17;12.33;;;5.43;;
9526;SDS011;4802;51.494;6.770;2023-05-10T04:10:50;19.10;;;7.27;;
9526;SDS011;4802;51.494;6.770;2023-05-10T04:13:22;13.07;;;7.03;;
9526;SDS011;4802;51.494;6.770;2023-05-10T04:15:51;13.53;;;7.23;;
9526;SDS011;4802;51.494;6.770;2023-05-10T04:18:21;20.63;;;9.37;;
9526;SDS011;4802;51.494;6.770;2023-05-10T04:20:54;10.80;;;7.43;;
9526;SDS011;4802;51.494;6.770;2023-05-10T04:23:25;10.60;;;8.07;;
9526;SDS011;4802;51.494;6.770;2023-05-10T04:25:58;17.33;;;8.87;;
9526;SDS011;4802;51.494;6.770;2023-05-10T04:28:28;10.97;;;6.90;;
9526;SDS011;4802;51.494;6.770;2023-05-10T04:31:01;14.40;;;7.83;;
9526;SDS011;4802;51.494;6.770;2023-05-10T04:33:31;11.90;;;6.40;;
9526;SDS011;4802;51.494;6.770;2023-05-10T04:36:02;13.37;;;6.80;;
9526;SDS011;4802;51.494;6.770;2023-05-10T04:38:32;12.70;;;6.67;;
9526;SDS011;4802;51.494;6.770;2023-05-10T04:41:06;19.83;;;9.20;;
9526;SDS011;4802;51.494;6.770;2023-05-10T04:43:36;14.17;;;8.27;;
9526;SDS011;4802;51.494;6.770;2023-05-10T04:46:05;15.97;;;8.33;;
9526;SDS011;4802;51.494;6.770;2023-05-10T04:48:35;14.23;;;8.77;;
9526;SDS011;4802;51.494;6.770;2023-05-10T04:51:06;18.90;;;9.23;;
9526;SDS011;4802;51.494;6.770;2023-05-10T04:53:37;10.63;;;6.83;;
9526;SDS011;4802;51.494;6.770;2023-05-10T04:56:07;16.47;;;10.40;;
9526;SDS011;4802;51.494;6.770;2023-05-10T04:58:36;15.27;;;10.10;;
9526;SDS011;4802;51.494;6.770;2023-05-10T05:01:07;19.43;;;8.50;;
9526;SDS011;4802;51.494;6.770;2023-05-10T05:03:42;12.17;;;6.77;;
9526;SDS011;4802;51.494;6.770;2023-05-10T05:06:30;10.97;;;7.90;;
9526;SDS011;4802;51.494;6.770;2023-05-10T05:09:01;13.73;;;10.30;;
9526;SDS011;4802;51.494;6.770;2023-05-10T05:11:32;13.37;;;8.20;;
9526;SDS011;4802;51.494;6.770;2023-05-10T05:14:01;12.63;;;9.57;;
9526;SDS011;4802;51.494;6.770;2023-05-10T05:16:30;24.77;;;11.20;;
9526;SDS011;4802;51.494;6.770;2023-05-10T05:19:00;29.97;;;9.47;;
9526;SDS011;4802;51.494;6.770;2023-05-10T05:21:36;23.20;;;11.53;;
9526;SDS011;4802;51.494;6.770;2023-05-10T05:24:06;13.43;;;10.60;;
9526;SDS011;4802;51.494;6.770;2023-05-10T05:26:37;17.20;;;8.90;;
9526;SDS011;4802;51.494;6.770;2023-05-10T05:29:06;15.87;;;9.60;;
9526;SDS011;4802;51.494;6.770;2023-05-10T05:31:35;14.40;;;9.17;;
9526;SDS011;4802;51.494;6.770;2023-05-10T05:34:04;20.07;;;10.47;;
9526;SDS011;4802;51.494;6.770;2023-05-10T05:36:38;20.23;;;9.27;;
9526;SDS011;4802;51.494;6.770;2023-05-10T05:39:08;11.93;;;7.50;;
9526;SDS011;4802;51.494;6.770;2023-05-10T05:41:37;22.60;;;8.57;;
9526;SDS011;4802;51.494;6.770;2023-05-10T05:44:07;15.47;;;8.73;;
9526;SDS011;4802;51.494;6.770;2023-05-10T05:46:37;24.73;;;10.60;;
9526;SDS011;4802;51.494;6.770;2023-05-10T05:49:06;27.20;;;13.73;;
9526;SDS011;4802;51.494;6.770;2023-05-10T05:51:47;14.70;;;7.30;;
9526;SDS011;4802;51.494;6.770;2023-05-10T05:54:16;22.60;;;11.30;;
9526;SDS011;4802;51.494;6.770;2023-05-10T05:56:46;21.10;;;10.17;;
9526;SDS011;4802;51.494;6.770;2023-05-10T05:59:20;22.63;;;10.77;;
9526;SDS011;4802;51.494;6.770;2023-05-10T06:01:50;27.80;;;12.30;;
9526;SDS011;4802;51.494;6.770;2023-05-10T06:04:19;19.63;;;9.40;;
9526;SDS011;4802;51.494;6.770;2023-05-10T06:06:50;16.27;;;9.20;;
9526;SDS011;4802;51.494;6.770;2023-05-10T06:09:22;21.03;;;9.80;;
9526;SDS011;4802;51.494;6.770;2023-05-10T06:11:51;27.63;;;13.50;;
9526;SDS011;4802;51.494;6.770;2023-05-10T06:14:21;22.60;;;10.93;;
9526;SDS011;4802;51.494;6.770;2023-05-10T06:16:54;24.03;;;11.70;;
9526;SDS011;4802;51.494;6.770;2023-05-10T06:19:25;23.20;;;10.43;;
9526;SDS011;4802;51.494;6.770;2023-05-10T06:22:01;25.13;;;12.50;;
9526;SDS011;4802;51.494;6.770;2023-05-10T06:24:30;21.83;;;11.50;;
9526;SDS011;4802;51.494;6.770;2023-05-10T06:27:00;16.70;;;10.10;;
9526;SDS011;4802;51.494;6.770;2023-05-10T06:29:29;29.40;;;13.93;;
9526;SDS011;4802;51.494;6.770;2023-05-10T06:32:02;19.43;;;11.53;;
9526;SDS011;4802;51.494;6.770;2023-05-10T06:34:46;27.83;;;10.97;;
9526;SDS011;4802;51.494;6.770;2023-05-10T06:37:24;19.67;;;10.70;;
9526;SDS011;4802;51.494;6.770;2023-05-10T06:39:55;27.10;;;12.37;;
9526;SDS011;4802;51.494;6.770;2023-05-10T06:42:26;28.90;;;12.80;;
9526;SDS011;4802;51.494;6.770;2023-05-10T06:44:56;21.70;;;11.80;;
9526;SDS011;4802;51.494;6.770;2023-05-10T06:47:26;20.60;;;9.50;;
9526;SDS011;4802;51.494;6.770;2023-05-10T06:50:05;24.43;;;12.87;;
9526;SDS011;4802;51.494;6.770;2023-05-10T06:55:36;21.57;;;11.83;;
9526;SDS011;4802;51.494;6.770;2023-05-10T06:58:09;27.27;;;11.67;;
9526;SDS011;4802;51.494;6.770;2023-05-10T07:00:40;14.57;;;10.20;;
9526;SDS011;4802;51.494;6.770;2023-05-10T07:03:10;24.40;;;11.23;;
9526;SDS011;4802;51.494;6.770;2023-05-10T07:05:43;22.27;;;11.33;;
9526;SDS011;4802;51.494;6.770;2023-05-10T07:08:14;29.13;;;12.40;;
9526;SDS011;4802;51.494;6.770;2023-05-10T07:10:49;30.20;;;10.77;;
9526;SDS011;4802;51.494;6.770;2023-05-10T07:13:21;24.67;;;12.70;;
9526;SDS011;4802;51.494;6.770;2023-05-10T07:15:51;33.30;;;14.17;;
9526;SDS011;4802;51.494;6.770;2023-05-10T07:18:21;20.03;;;10.47;;
9526;SDS011;4802;51.494;6.770;2023-05-10T07:20:51;28.67;;;11.77;;
9526;SDS011;4802;51.494;6.770;2023-05-10T07:23:20;20.43;;;9.70;;
9526;SDS011;4802;51.494;6.770;2023-05-10T07:25:51;26.93;;;13.23;;
9526;SDS011;4802;51.494;6.770;2023-05-10T07:28:21;24.50;;;10.67;;
9526;SDS011;4802;51.494;6.770;2023-05-10T07:30:51;21.63;;;10.20;;
9526;SDS011;4802;51.494;6.770;2023-05-10T07:33:23;28.20;;;9.97;;
9526;SDS011;4802;51.494;6.770;2023-05-10T07:35:57;32.37;;;9.73;;
9526;SDS011;4802;51.494;6.770;2023-05-10T07:38:26;27.10;;;10.50;;
9526;SDS011;4802;51.494;6.770;2023-05-10T07:41:02;25.10;;;12.77;;
9526;SDS011;4802;51.494;6.770;2023-05-10T07:43:36;19.73;;;9.90;;
9526;SDS011;4802;51.494;6.770;2023-05-10T07:46:08;21.57;;;9.50;;
9526;SDS011;4802;51.494;6.770;2023-05-10T07:48:51;17.10;;;10.57;;
9526;SDS011;4802;51.494;6.770;2023-05-10T07:51:23;17.60;;;9.87;;
9526;SDS011;4802;51.494;6.770;2023-05-10T07:53:54;21.80;;;11.20;;
9526;SDS011;4802;51.494;6.770;2023-05-10T07:56:27;22.33;;;9.47;;
9526;SDS011;4802;51.494;6.770;2023-05-10T07:59:07;21.13;;;9.20;;
9526;SDS011;4802;51.494;6.770;2023-05-10T08:01:38;27.23;;;11.67;;
9526;SDS011;4802;51.494;6.770;2023-05-10T08:04:10;31.07;;;10.60;;
9526;SDS011;4802;51.494;6.770;2023-05-10T08:06:39;17.57;;;8.73;;
9526;SDS011;4802;51.494;6.770;2023-05-10T08:09:10;26.90;;;11.20;;
9526;SDS011;4802;51.494;6.770;2023-05-10T08:11:42;21.00;;;7.93;;
9526;SDS011;4802;51.494;6.770;2023-05-10T08:14:12;26.03;;;10.17;;
9526;SDS011;4802;51.494;6.770;2023-05-10T08:16:44;26.20;;;11.60;;
9526;SDS011;4802;51.494;6.770;2023-05-10T08:19:16;21.30;;;12.13;;
9526;SDS011;4802;51.494;6.770;2023-05-10T08:21:49;22.83;;;11.67;;
9526;SDS011;4802;51.494;6.770;2023-05-10T08:24:19;18.43;;;9.23;;
9526;SDS011;4802;51.494;6.770;2023-05-10T08:26:51;15.70;;;9.03;;
9526;SDS011;4802;51.494;6.770;2023-05-10T08:29:21;15.27;;;9.13;;
9526;SDS011;4802;51.494;6.770;2023-05-10T08:31:56;15.03;;;7.80;;
9526;SDS011;4802;51.494;6.770;2023-05-10T08:34:26;9.87;;;6.83;;
9526;SDS011;4802;51.494;6.770;2023-05-10T08:36:58;11.63;;;8.30;;
9526;SDS011;4802;51.494;6.770;2023-05-10T08:39:35;12.03;;;7.10;;
9526;SDS011;4802;51.494;6.770;2023-05-10T08:42:15;14.30;;;7.60;;
9526;SDS011;4802;51.494;6.770;2023-05-10T08:45:14;18.03;;;7.87;;
9526;SDS011;4802;51.494;6.770;2023-05-10T08:48:18;12.73;;;6.40;;
9526;SDS011;4802;51.494;6.770;2023-05-10T08:50:53;13.50;;;7.27;;
9526;SDS011;4802;51.494;6.770;2023-05-10T08:53:29;18.87;;;8.77;;
9526;SDS011;4802;51.494;6.770;2023-05-10T08:56:03;13.77;;;6.13;;
9526;SDS011;4802;51.494;6.770;2023-05-10T08:58:36;15.77;;;7.37;;
9526;SDS011;4802;51.494;6.770;2023-05-10T09:01:22;16.00;;;7.23;;
9526;SDS011;4802;51.494;6.770;2023-05-10T09:03:53;17.23;;;7.87;;
9526;SDS011;4802;51.494;6.770;2023-05-10T09:06:39;13.47;;;7.20;;
9526;SDS011;4802;51.494;6.770;2023-05-10T09:09:10;13.30;;;8.27;;
9526;SDS011;4802;51.494;6.770;2023-05-10T09:11:47;13.60;;;7.53;;
9526;SDS011;4802;51.494;6.770;2023-05-10T09:14:36;15.17;;;8.80;;
9526;SDS011;4802;51.494;6.770;2023-05-10T09:17:23;14.20;;;7.47;;
9526;SDS011;4802;51.494;6.770;2023-05-10T09:20:06;11.90;;;6.17;;
9526;SDS011;4802;51.494;6.770;2023-05-10T09:22:39;10.03;;;6.20;;
9526;SDS011;4802;51.494;6.770;2023-05-10T09:25:10;15.70;;;6.63;;
9526;SDS011;4802;51.494;6.770;2023-05-10T09:27:43;14.33;;;7.00;;
9526;SDS011;4802;51.494;6.770;2023-05-10T09:30:17;11.00;;;6.07;;
9526;SDS011;4802;51.494;6.770;2023-05-10T09:32:53;5.07;;;4.37;;
9526;SDS011;4802;51.494;6.770;2023-05-10T09:35:43;16.93;;;6.17;;
9526;SDS011;4802;51.494;6.770;2023-05-10T09:38:26;9.47;;;5.80;;
9526;SDS011;4802;51.494;6.770;2023-05-10T09:40:58;6.80;;;5.80;;
9526;SDS011;4802;51.494;6.770;2023-05-10T09:43:37;8.73;;;5.97;;
9526;SDS011;4802;51.494;6.770;2023-05-10T09:46:22;11.83;;;6.00;;
9526;SDS011;4802;51.494;6.770;2023-05-10T09:48:52;9.07;;;5.53;;
9526;SDS011;4802;51.494;6.770;2023-05-10T09:51:25;10.10;;;5.97;;
9526;SDS011;4802;51.494;6.770;2023-05-10T09:54:08;15.70;;;6.60;;
9526;SDS011;4802;51.494;6.770;2023-05-10T09:56:38;12.07;;;7.17;;
9526;SDS011;4802;51.494;6.770;2023-05-10T09:59:16;10.63;;;6.13;;
9526;SDS011;4802;51.494;6.770;2023-05-10T10:01:59;9.57;;;6.63;;
9526;SDS011;4802;51.494;6.770;2023-05-10T10:04:39;11.77;;;6.50;;
9526;SDS011;4802;51.494;6.770;2023-05-10T10:07:10;9.40;;;7.40;;
9526;SDS011;4802;51.494;6.770;2023-05-10T10:09:43;11.03;;;7.50;;
9526;SDS011;4802;51.494;6.770;2023-05-10T10:12:14;13.77;;;7.13;;
9526;SDS011;4802;51.494;6.770;2023-05-10T10:14:47;13.27;;;8.30;;
9526;SDS011;4802;51.494;6.770;2023-05-10T10:17:33;10.93;;;6.67;;
9526;SDS011;4802;51.494;6.770;2023-05-10T10:20:26;16.40;;;9.20;;
9526;SDS011;4802;51.494;6.770;2023-05-10T10:23:04;11.73;;;7.30;;
9526;SDS011;4802;51.494;6.770;2023-05-10T10:25:41;16.00;;;7.40;;
9526;SDS011;4802;51.494;6.770;2023-05-10T10:28:21;21.37;;;10.10;;
9526;SDS011;4802;51.494;6.770;2023-05-10T10:30:55;10.67;;;6.17;;
9526;SDS011;4802;51.494;6.770;2023-05-10T10:36:46;10.20;;;6.60;;
9526;SDS011;4802;51.494;6.770;2023-05-10T10:39:43;13.30;;;7.10;;
9526;SDS011;4802;51.494;6.770;2023-05-10T10:42:46;13.40;;;6.97;;
9526;SDS011;4802;51.494;6.770;2023-05-10T10:45:21;12.47;;;7.37;;
9526;SDS011;4802;51.494;6.770;2023-05-10T10:48:21;12.67;;;7.73;;
9526;SDS011;4802;51.494;6.770;2023-05-10T10:51:18;11.90;;;7.30;;
9526;SDS011;4802;51.494;6.770;2023-05-10T10:54:29;24.67;;;5.80;;
9526;SDS011;4802;51.494;6.770;2023-05-10T10:57:17;16.67;;;6.87;;
9526;SDS011;4802;51.494;6.770;2023-05-10T11:03:03;11.07;;;7.23;;
9526;SDS011;4802;51.494;6.770;2023-05-10T11:05:40;12.70;;;7.37;;
9526;SDS011;4802;51.494;6.770;2023-05-10T11:08:28;10.27;;;6.20;;
9526;SDS011;4802;51.494;6.770;2023-05-10T11:20:24;10.97;;;5.90;;
9526;SDS011;4802;51.494;6.770;2023-05-10T11:23:10;6.37;;;5.60;;
9526;SDS011;4802;51.494;6.770;2023-05-10T11:25:44;12.23;;;8.63;;
9526;SDS011;4802;51.494;6.770;2023-05-10T11:28:16;10.10;;;6.33;;
9526;SDS011;4802;51.494;6.770;2023-05-10T11:30:49;12.70;;;7.93;;
9526;SDS011;4802;51.494;6.770;2023-05-10T11:33:21;13.17;;;7.70;;
9526;SDS011;4802;51.494;6.770;2023-05-10T11:36:16;9.67;;;7.07;;
9526;SDS011;4802;51.494;6.770;2023-05-10T11:38:47;8.97;;;6.60;;
9526;SDS011;4802;51.494;6.770;2023-05-10T11:41:21;8.20;;;6.60;;
9526;SDS011;4802;51.494;6.770;2023-05-10T11:43:54;6.70;;;5.33;;
9526;SDS011;4802;51.494;6.770;2023-05-10T11:46:24;11.63;;;6.83;;
9526;SDS011;4802;51.494;6.770;2023-05-10T11:48:56;7.40;;;4.97;;
9526;SDS011;4802;51.494;6.770;2023-05-10T11:51:32;6.80;;;5.57;;
9526;SDS011;4802;51.494;6.770;2023-05-10T11:54:10;8.47;;;6.10;;
9526;SDS011;4802;51.494;6.770;2023-05-10T11:56:41;7.67;;;4.90;;
9526;SDS011;4802;51.494;6.770;2023-05-10T11:59:13;6.90;;;5.10;;
9526;SDS011;4802;51.494;6.770;2023-05-10T12:01:44;10.23;;;6.23;;
9526;SDS011;4802;51.494;6.770;2023-05-10T12:04:15;7.33;;;5.13;;
9526;SDS011;4802;51.494;6.770;2023-05-10T12:06:58;5.27;;;3.43;;
9526;SDS011;4802;51.494;6.770;2023-05-10T12:09:42;4.80;;;4.40;;
9526;SDS011;4802;51.494;6.770;2023-05-10T12:12:15;8.20;;;4.67;;
9526;SDS011;4802;51.494;6.770;2023-05-10T12:14:48;6.90;;;4.67;;
9526;SDS011;4802;51.494;6.770;2023-05-10T12:17:45;5.70;;;4.13;;
9526;SDS011;4802;51.494;6.770;2023-05-10T12:20:41;4.07;;;3.73;;
9526;SDS011;4802;51.494;6.770;2023-05-10T12:23:42;4.27;;;3.87;;
9526;SDS011;4802;51.494;6.770;2023-05-10T12:26:11;5.60;;;3.50;;
9526;SDS011;4802;51.494;6.770;2023-05-10T12:29:00;5.00;;;2.97;;
9526;SDS011;4802;51.494;6.770;2023-05-10T12:31:54;9.60;;;4.60;;
9526;SDS011;4802;51.494;6.770;2023-05-10T12:34:31;7.43;;;3.20;;
9526;SDS011;4802;51.494;6.770;2023-05-10T12:37:23;3.50;;;3.20;;
9526;SDS011;4802;51.494;6.770;2023-05-10T12:40:00;7.67;;;3.80;;
9526;SDS011;4802;51.494;6.770;2023-05-10T12:42:43;3.07;;;2.87;;
9526;SDS011;4802;51.494;6.770;2023-05-10T12:45:25;3.07;;;2.77;;
9526;SDS011;4802;51.494;6.770;2023-05-10T12:47:56;4.83;;;3.50;;
9526;SDS011;4802;51.494;6.770;2023-05-10T12:50:34;32.93;;;2.43;;
9526;SDS011;4802;51.494;6.770;2023-05-10T12:53:06;3.97;;;3.10;;
9526;SDS011;4802;51.494;6.770;2023-05-10T12:58:24;3.43;;;3.13;;
9526;SDS011;4802;51.494;6.770;2023-05-10T13:01:01;2.63;;;2.40;;
9526;SDS011;4802;51.494;6.770;2023-05-10T13:04:00;3.33;;;2.67;;
9526;SDS011;4802;51.494;6.770;2023-05-10T13:06:33;3.30;;;3.00;;
9526;SDS011;4802;51.494;6.770;2023-05-10T13:09:15;3.50;;;3.20;;
9526;SDS011;4802;51.494;6.770;2023-05-10T13:11:59;4.27;;;3.40;;
9526;SDS011;4802;51.494;6.770;2023-05-10T13:14:38;2.63;;;2.43;;
9526;SDS011;4802;51.494;6.770;2023-05-10T13:17:13;3.67;;;2.33;;
9526;SDS011;4802;51.494;6.770;2023-05-10T13:19:47;2.03;;;1.93;;
9526;SDS011;4802;51.494;6.770;2023-05-10T13:22:18;4.73;;;2.93;;
9526;SDS011;4802;51.494;6.770;2023-05-10T13:25:05;2.93;;;2.70;;
9526;SDS011;4802;51.494;6.770;2023-05-10T13:27:36;3.73;;;3.43;;
9526;SDS011;4802;51.494;6.770;2023-05-10T13:30:15;3.80;;;3.50;;
9526;SDS011;4802;51.494;6.770;2023-05-10T13:32:45;6.40;;;3.13;;
9526;SDS011;4802;51.494;6.770;2023-05-10T13:35:16;2.97;;;2.77;;
9526;SDS011;4802;51.494;6.770;2023-05-10T13:37:46;2.70;;;2.50;;
9526;SDS011;4802;51.494;6.770;2023-05-10T13:40:16;2.97;;;1.83;;
9526;SDS011;4802;51.494;6.770;2023-05-10T13:42:52;1.87;;;1.67;;
9526;SDS011;4802;51.494;6.770;2023-05-10T13:45:26;10.27;;;3.17;;
9526;SDS011;4802;51.494;6.770;2023-05-10T13:47:58;2.40;;;2.20;;
9526;SDS011;4802;51.494;6.770;2023-05-10T13:50:28;2.63;;;2.40;;
9526;SDS011;4802;51.494;6.770;2023-05-10T13:53:01;2.43;;;2.33;;
9526;SDS011;4802;51.494;6.770;2023-05-10T13:55:33;4.97;;;3.17;;
9526;SDS011;4802;51.494;6.770;2023-05-10T13:58:02;2.37;;;2.17;;
9526;SDS011;4802;51.494;6.770;2023-05-10T14:00:41;3.20;;;2.60;;
9526;SDS011;4802;51.494;6.770;2023-05-10T14:03:11;2.07;;;1.97;;
9526;SDS011;4802;51.494;6.770;2023-05-10T14:05:46;3.63;;;3.30;;
9526;SDS011;4802;51.494;6.770;2023-05-10T14:08:16;2.77;;;2.57;;
9526;SDS011;4802;51.494;6.770;2023-05-10T14:10:49;5.10;;;2.70;;
9526;SDS011;4802;51.494;6.770;2023-05-10T14:13:19;3.17;;;2.97;;
9526;SDS011;4802;51.494;6.770;2023-05-10T14:15:54;2.77;;;2.50;;
9526;SDS011;4802;51.494;6.770;2023-05-10T14:18:24;4.80;;;2.70;;
9526;SDS011;4802;51.494;6.770;2023-05-10T14:20:55;2.63;;;2.43;;
9526;SDS011;4802;51.494;6.770;2023-05-10T14:23:26;2.90;;;2.70;;
9526;SDS011;4802;51.494;6.770;2023-05-10T14:25:58;2.97;;;2.77;;
9526;SDS011;4802;51.494;6.770;2023-05-10T14:28:29;3.83;;;2.27;;
9526;SDS011;4802;51.494;6.770;2023-05-10T14:31:04;4.13;;;3.83;;
9526;SDS011;4802;51.494;6.770;2023-05-10T14:33:44;4.37;;;3.97;;
9526;SDS011;4802;51.494;6.770;2023-05-10T14:36:17;3.97;;;3.03;;
9526;SDS011;4802;51.494;6.770;2023-05-10T14:38:53;3.43;;;3.13;;
9526;SDS011;4802;51.494;6.770;2023-05-10T14:41:23;3.67;;;3.23;;
9526;SDS011;4802;51.494;6.770;2023-05-10T14:44:01;3.70;;;3.37;;
9526;SDS011;4802;51.494;6.770;2023-05-10T14:46:35;6.93;;;4.80;;
9526;SDS011;4802;51.494;6.770;2023-05-10T14:49:07;3.60;;;3.30;;
9526;SDS011;4802;51.494;6.770;2023-05-10T14:51:37;3.53;;;2.80;;
9526;SDS011;4802;51.494;6.770;2023-05-10T14:54:10;6.00;;;4.33;;
9526;SDS011;4802;51.494;6.770;2023-05-10T14:56:41;6.83;;;4.43;;
9526;SDS011;4802;51.494;6.770;2023-05-10T14:59:19;5.90;;;3.87;;
9526;SDS011;4802;51.494;6.770;2023-05-10T15:01:53;4.27;;;3.93;;
9526;SDS011;4802;51.494;6.770;2023-05-10T15:04:23;4.50;;;3.63;;
9526;SDS011;4802;51.494;6.770;2023-05-10T15:06:55;4.40;;;3.87;;
9526;SDS011;4802;51.494;6.770;2023-05-10T15:09:28;7.50;;;4.73;;
9526;SDS011;4802;51.494;6.770;2023-05-10T15:11:58;4.63;;;3.77;;
9526;SDS011;4802;51.494;6.770;2023-05-10T15:14:29;8.47;;;4.97;;
9526;SDS011;4802;51.494;6.770;2023-05-10T15:17:05;7.77;;;4.47;;
9526;SDS011;4802;51.494;6.770;2023-05-10T15:19:53;6.50;;;5.20;;
9526;SDS011;4802;51.494;6.770;2023-05-10T15:22:32;4.53;;;4.13;;
9526;SDS011;4802;51.494;6.770;2023-05-10T15:25:05;10.27;;;6.73;;
9526;SDS011;4802;51.494;6.770;2023-05-10T15:27:35;5.50;;;4.67;;
9526;SDS011;4802;51.494;6.770;2023-05-10T15:30:06;10.17;;;6.40;;
9526;SDS011;4802;51.494;6.770;2023-05-10T15:32:39;11.03;;;6.97;;
9526;SDS011;4802;51.494;6.770;2023-05-10T15:35:16;5.10;;;4.43;;
9526;SDS011;4802;51.494;6.770;2023-05-10T15:37:46;5.30;;;3.63;;
9526;SDS011;4802;51.494;6.770;2023-05-10T15:40:17;3.07;;;2.87;;
9526;SDS011;4802;51.494;6.770;2023-05-10T15:42:47;15.77;;;2.10;;
9526;SDS011;4802;51.494;6.770;2023-05-10T15:45:16;1.00;;;1.00;;
9526;SDS011;4802;51.494;6.770;2023-05-10T15:47:47;2.50;;;2.10;;
9526;SDS011;4802;51.494;6.770;2023-05-10T15:50:17;1.70;;;1.60;;
9526;SDS011;4802;51.494;6.770;2023-05-10T15:52:46;4.07;;;1.97;;
9526;SDS011;4802;51.494;6.770;2023-05-10T15:55:20;1.10;;;1.10;;
9526;SDS011;4802;51.494;6.770;2023-05-10T15:57:49;1.30;;;1.20;;
9526;SDS011;4802;51.494;6.770;2023-05-10T16:00:21;0.80;;;0.80;;
9526;SDS011;4802;51.494;6.770;2023-05-10T16:02:52;4.83;;;1.87;;
9526;SDS011;4802;51.494;6.770;2023-05-10T16:05:22;1.57;;;1.47;;
9526;SDS011;4802;51.494;6.770;2023-05-10T16:07:53;4.03;;;1.77;;
9526;SDS011;4802;51.494;6.770;2023-05-10T16:10:23;3.63;;;2.50;;